Time;durP1;ratioP1;P1;durP2;ratioP2;P2;SDS_P1;SDS_P2;PMS_P1;PMS_P2;Temp;Humidity;BMP_temperature;BMP_pressure;BME280_temperature;BME280_humidity;BME280_pressure;Samples;Min_cycle;Max_cycle;Signal;HPM_P1;HPM_P2
2021/03/28 00:01:16;;;;;;;8.80;1.48;;;;;;;2.19;51.56;102363.34;5036635;28;20040;-81
2021/03/28 00:03:46;;;;;;;8.40;1.77;;;;;;;2.34;50.90;102370.53;5035142;28;20033;-81
2021/03/28 00:06:20;;;;;;;8.82;1.42;;;;;;;2.27;51.58;102371.25;5057437;28;20044;-80
2021/03/28 00:09:01;;;;;;;11.82;1.15;;;;;;;1.93;52.29;102366.31;5037070;28;20029;-80
2021/03/28 00:11:28;;;;;;;13.23;2.65;;;;;;;1.94;52.53;102367.19;5042208;28;20033;-81
2021/03/28 00:13:56;;;;;;;3.05;0.98;;;;;;;2.60;50.49;102371.00;5056812;28;20432;-80
2021/03/28 00:16:26;;;;;;;10.20;1.60;;;;;;;2.42;50.58;102368.97;5035875;28;20037;-80
2021/03/28 00:19:18;;;;;;;5.78;1.50;;;;;;;2.25;50.77;102368.63;5068347;28;20044;-80
2021/03/28 00:21:52;;;;;;;6.07;2.83;;;;;;;2.37;50.58;102361.97;5037861;28;20029;-80
2021/03/28 00:24:25;;;;;;;14.85;1.35;;;;;;;2.52;50.20;102357.06;5057507;28;20958;-80
2021/03/28 00:27:19;;;;;;;6.85;1.33;;;;;;;2.65;49.67;102353.88;5054766;28;20033;-80
2021/03/28 00:29:54;;;;;;;7.60;1.75;;;;;;;2.66;49.41;102358.16;5034963;28;20040;-82
2021/03/28 00:32:44;;;;;;;9.15;1.60;;;;;;;2.13;50.61;102350.34;5051092;28;20029;-80
2021/03/28 00:35:18;;;;;;;8.45;1.02;;;;;;;2.86;48.56;102352.47;5037132;28;20629;-82
2021/03/28 00:37:45;;;;;;;5.78;0.90;;;;;;;2.67;48.98;102341.84;5053374;28;20068;-79
2021/03/28 00:40:19;;;;;;;10.40;1.38;;;;;;;2.80;48.77;102336.88;5035239;28;20040;-80
2021/03/28 00:42:48;;;;;;;6.70;1.08;;;;;;;2.72;48.57;102335.03;5050704;28;20036;-80
2021/03/28 00:45:32;;;;;;;11.02;1.40;;;;;;;2.94;48.39;102337.97;5056677;28;20044;-81
2021/03/28 00:48:18;;;;;;;8.35;1.77;;;;;;;2.97;48.10;102340.59;5038354;28;20037;-80
2021/03/28 00:50:51;;;;;;;5.50;0.90;;;;;;;2.52;49.26;102336.44;5044699;28;20623;-81
2021/03/28 00:53:31;;;;;;;8.27;0.87;;;;;;;3.14;47.80;102330.53;5042927;28;20061;-81
2021/03/28 00:56:26;;;;;;;4.68;0.90;;;;;;;3.27;47.56;102327.25;5035152;28;20290;-81
2021/03/28 00:59:15;;;;;;;5.65;0.85;;;;;;;2.62;48.86;102338.31;5053654;28;20029;-81
2021/03/28 01:02:27;;;;;;;13.77;1.05;;;;;;;2.98;48.17;102324.25;5042153;28;20033;-80
2021/03/28 01:05:05;;;;;;;7.93;1.40;;;;;;;2.91;48.05;102319.81;5035394;28;20040;-80
2021/03/28 01:07:33;;;;;;;7.80;1.58;;;;;;;2.49;49.23;102326.06;5039590;28;20024;-82
2021/03/28 01:10:33;;;;;;;16.52;1.83;;;;;;;2.86;48.31;102321.47;5036764;28;20063;-81
2021/03/28 01:13:34;;;;;;;7.15;0.73;;;;;;;2.91;48.23;102315.56;5052447;28;20243;-80
2021/03/28 01:16:33;;;;;;;7.00;1.77;;;;;;;2.69;48.47;102324.69;5003257;28;20038;-81
2021/03/28 01:19:34;;;;;;;10.43;1.45;;;;;;;2.97;47.97;102325.09;5053611;28;20041;-80
2021/03/28 01:22:09;;;;;;;13.73;1.55;;;;;;;2.75;48.43;102323.88;5043721;28;20297;-81
2021/03/28 01:24:46;;;;;;;4.72;1.30;;;;;;;2.83;48.17;102326.59;5038259;28;20116;-81
2021/03/28 01:27:18;;;;;;;12.55;1.77;;;;;;;2.89;47.82;102324.09;5051499;28;20754;-82
2021/03/28 01:29:48;;;;;;;10.10;1.25;;;;;;;2.69;48.36;102313.44;5038124;28;20037;-81
2021/03/28 01:32:30;;;;;;;6.88;1.05;;;;;;;2.33;49.29;102323.22;5056476;28;20037;-80
2021/03/28 01:35:12;;;;;;;16.05;1.88;;;;;;;2.63;48.75;102321.13;5058689;28;20033;-81
2021/03/28 01:38:03;;;;;;;7.55;1.48;;;;;;;2.72;48.06;102309.22;5039958;28;20500;-80
2021/03/28 01:40:37;;;;;;;13.27;1.95;;;;;;;2.96;47.63;102307.88;5035575;28;20102;-80
2021/03/28 01:43:21;;;;;;;6.15;0.60;;;;;;;2.30;49.04;102305.06;5033264;28;20026;-81
2021/03/28 01:46:06;;;;;;;7.30;0.75;;;;;;;2.82;48.13;102299.03;5052457;28;20029;-81
2021/03/28 01:49:12;;;;;;;8.65;1.05;;;;;;;2.67;48.40;102295.38;5052694;28;20079;-80
2021/03/28 01:52:02;;;;;;;13.60;1.40;;;;;;;3.01;47.82;102311.38;5054139;28;20261;-81
2021/03/28 01:54:54;;;;;;;6.80;1.38;;;;;;;2.89;47.89;102308.59;5070327;28;20071;-80
2021/03/28 01:57:25;;;;;;;11.40;1.42;;;;;;;2.84;48.28;102300.78;5042857;28;20038;-81
2021/03/28 02:00:26;;;;;;;9.10;1.30;;;;;;;2.89;47.95;102295.69;5067552;28;20033;-82
2021/03/28 02:03:04;;;;;;;11.10;1.88;;;;;;;2.68;48.44;102291.06;5044434;28;20467;-80
2021/03/28 02:05:43;;;;;;;15.57;1.70;;;;;;;2.49;49.01;102295.97;5039442;28;20043;-80
2021/03/28 02:08:35;;;;;;;10.25;1.25;;;;;;;2.62;48.95;102281.50;5041789;28;20052;-80
2021/03/28 02:11:16;;;;;;;9.02;2.03;;;;;;;2.87;48.10;102281.91;5053965;28;20131;-82
2021/03/28 02:14:16;;;;;;;12.23;1.20;;;;;;;2.67;48.92;102289.34;5036133;28;20025;-81
2021/03/28 02:17:02;;;;;;;6.25;1.55;;;;;;;2.90;48.42;102281.94;5055173;28;20225;-80
2021/03/28 02:19:31;;;;;;;11.45;1.38;;;;;;;2.76;48.88;102286.91;5036202;28;20499;-81
2021/03/28 02:22:11;;;;;;;10.98;1.17;;;;;;;2.79;48.50;102291.25;5041297;28;20036;-81
2021/03/28 02:24:36;;;;;;;11.68;3.13;;;;;;;2.67;49.17;102285.06;5039608;28;20172;-81
2021/03/28 02:27:08;;;;;;;6.82;1.10;;;;;;;2.82;48.89;102286.97;5040004;28;20126;-81
2021/03/28 02:29:59;;;;;;;6.90;1.35;;;;;;;3.13;48.14;102284.84;5039729;28;20093;-81
2021/03/28 02:32:44;;;;;;;6.22;1.55;;;;;;;3.04;48.55;102288.16;5051069;28;20032;-80
2021/03/28 02:35:12;;;;;;;9.40;1.70;;;;;;;2.76;48.96;102272.28;5048968;28;20646;-79
2021/03/28 02:37:42;;;;;;;15.35;1.42;;;;;;;2.96;48.89;102287.22;5037338;28;20049;-80
2021/03/28 02:40:25;;;;;;;18.35;3.33;;;;;;;3.18;48.38;102283.22;5033368;28;20045;-81
2021/03/28 02:43:13;;;;;;;8.15;1.40;;;;;;;2.73;49.35;102284.25;5037789;28;20037;-81
2021/03/28 02:45:44;;;;;;;9.23;1.48;;;;;;;3.06;49.03;102283.88;5036067;28;20455;-82
2021/03/28 02:48:27;;;;;;;13.75;1.50;;;;;;;2.99;49.17;102276.91;5063212;28;20353;-81
2021/03/28 02:51:05;;;;;;;13.43;1.25;;;;;;;3.22;48.81;102278.94;5036872;28;20575;-81
2021/03/28 02:53:48;;;;;;;13.98;2.28;;;;;;;3.25;48.73;102273.78;5038777;28;20048;-81
2021/03/28 02:56:25;;;;;;;8.55;1.20;;;;;;;2.90;49.97;102289.69;5037639;28;20129;-82
2021/03/28 02:58:51;;;;;;;7.85;1.90;;;;;;;3.34;48.58;102274.84;5033968;28;20033;-82
2021/03/28 03:01:22;;;;;;;9.38;1.65;;;;;;;2.89;50.17;102275.03;5049936;28;20473;-82
2021/03/28 03:04:13;;;;;;;7.13;0.70;;;;;;;3.39;48.97;102278.34;5051975;28;20041;-82
2021/03/28 03:06:57;;;;;;;12.70;1.70;;;;;;;3.74;47.97;102280.47;5038124;28;20033;-82
2021/03/28 03:09:48;;;;;;;7.72;0.82;;;;;;;3.41;49.28;102288.69;5033674;28;20037;-81
2021/03/28 03:12:36;;;;;;;7.85;1.40;;;;;;;3.43;49.56;102274.09;5003130;28;20113;-82
2021/03/28 03:15:10;;;;;;;12.88;1.55;;;;;;;3.76;48.73;102272.72;5036404;28;20037;-81
2021/03/28 03:18:06;;;;;;;9.20;1.55;;;;;;;3.27;50.21;102277.28;5048099;28;20025;-82
2021/03/28 03:21:09;;;;;;;7.10;1.48;;;;;;;2.93;51.32;102272.50;5051190;28;20033;-80
2021/03/28 03:23:51;;;;;;;14.60;1.65;;;;;;;3.98;48.64;102261.78;5034423;28;20044;-81
2021/03/28 03:26:35;;;;;;;11.77;1.98;;;;;;;3.60;49.86;102256.16;5054098;28;20044;-81
2021/03/28 03:29:32;;;;;;;15.98;1.55;;;;;;;3.65;50.20;102258.81;5031577;28;20044;-81
2021/03/28 03:32:18;;;;;;;13.05;2.85;;;;;;;3.69;50.28;102251.09;5035924;28;20181;-80
2021/03/28 03:35:02;;;;;;;8.27;1.95;;;;;;;4.00;49.49;102248.81;5017066;28;20256;-81
2021/03/28 03:37:46;;;;;;;7.35;1.48;;;;;;;3.62;50.68;102254.47;5032151;28;20037;-81
2021/03/28 03:40:47;;;;;;;9.63;1.55;;;;;;;3.62;51.06;102256.19;5046736;28;20133;-81
2021/03/28 03:43:33;;;;;;;17.83;1.75;;;;;;;3.31;51.98;102245.47;5037471;28;20038;-81
2021/03/28 03:46:02;;;;;;;8.80;2.47;;;;;;;3.55;51.17;102256.13;5049838;28;20512;-80
2021/03/28 03:48:50;;;;;;;10.38;1.98;;;;;;;3.53;51.06;102249.19;5046005;28;20043;-80
2021/03/28 03:51:30;;;;;;;16.30;1.88;;;;;;;3.62;51.32;102253.59;5034937;28;20468;-81
2021/03/28 03:54:03;;;;;;;7.88;1.85;;;;;;;3.17;52.50;102250.47;5031623;28;20483;-81
2021/03/28 03:56:44;;;;;;;9.25;2.03;;;;;;;3.48;51.92;102248.28;5035581;28;20034;-80
2021/03/28 03:59:29;;;;;;;22.33;3.33;;;;;;;3.65;51.56;102245.88;5049420;28;20037;-81
2021/03/28 04:02:23;;;;;;;14.40;2.35;;;;;;;3.21;52.56;102249.66;5050500;28;20029;-80
2021/03/28 04:05:19;;;;;;;16.70;2.25;;;;;;;3.19;52.64;102241.00;5053202;28;20037;-80
2021/03/28 04:08:01;;;;;;;9.82;1.63;;;;;;;3.44;51.98;102249.97;5032160;28;20036;-80
2021/03/28 04:10:29;;;;;;;12.65;2.00;;;;;;;3.42;52.04;102241.31;5038221;28;20037;-81
2021/03/28 04:13:13;;;;;;;10.02;1.48;;;;;;;3.25;52.30;102247.94;5035469;28;20034;-81
2021/03/28 04:16:07;;;;;;;16.45;2.15;;;;;;;3.67;51.40;102236.41;5053899;28;20116;-80
2021/03/28 04:18:50;;;;;;;8.27;1.88;;;;;;;3.96;50.21;102229.84;5037046;28;20036;-80
2021/03/28 04:21:22;;;;;;;18.58;1.55;;;;;;;3.91;50.46;102231.50;5042482;28;20033;-80
2021/03/28 04:24:24;;;;;;;10.15;2.00;;;;;;;3.72;50.58;102219.25;5043350;28;20025;-80
2021/03/28 04:27:03;;;;;;;7.60;1.55;;;;;;;3.05;52.58;102222.75;4998361;28;20075;-81
2021/03/28 04:29:30;;;;;;;10.32;1.80;;;;;;;3.19;51.79;102217.75;5051696;28;20073;-80
2021/03/28 04:32:05;;;;;;;8.73;2.03;;;;;;;3.33;51.70;102216.22;5056885;28;20272;-80
2021/03/28 04:34:39;;;;;;;20.25;2.78;;;;;;;3.21;52.42;102215.19;5034256;28;20045;-80
2021/03/28 04:37:24;;;;;;;11.50;1.70;;;;;;;3.48;51.11;102214.69;5035394;28;20408;-81
2021/03/28 04:40:14;;;;;;;14.85;2.80;;;;;;;3.39;51.69;102210.28;5044511;28;20545;-80
2021/03/28 04:42:52;;;;;;;9.65;1.85;;;;;;;3.00;52.41;102211.47;5035545;28;20072;-80
2021/03/28 04:45:36;;;;;;;18.45;2.53;;;;;;;3.24;51.97;102204.88;5066585;28;20036;-81
2021/03/28 04:48:08;;;;;;;8.85;1.83;;;;;;;2.75;53.15;102205.97;5054269;28;20374;-80
2021/03/28 04:50:37;;;;;;;8.93;2.10;;;;;;;2.98;52.57;102202.88;5034316;28;20029;-80
2021/03/28 04:53:24;;;;;;;10.20;2.78;;;;;;;3.29;51.77;102204.16;5038704;28;20032;-81
2021/03/28 04:56:12;;;;;;;7.60;2.13;;;;;;;3.33;51.46;102197.28;5035353;28;20033;-83
2021/03/28 04:59:09;;;;;;;5.20;2.55;;;;;;;2.91;52.30;102207.09;5039022;28;20041;-83
2021/03/28 05:01:39;;;;;;;19.75;3.30;;;;;;;2.73;53.21;102207.69;5037385;28;20033;-80
2021/03/28 05:04:36;;;;;;;11.88;2.40;;;;;;;2.88;52.90;102209.59;5054858;28;20040;-81
2021/03/28 05:07:16;;;;;;;13.60;2.80;;;;;;;3.05;52.11;102204.66;5068819;28;20028;-81
2021/03/28 05:09:51;;;;;;;5.35;2.33;;;;;;;2.61;53.57;102211.81;5050493;28;20041;-80
2021/03/28 05:12:35;;;;;;;11.73;2.60;;;;;;;3.11;52.22;102202.19;5049164;28;20052;-80
2021/03/28 05:15:16;;;;;;;15.32;2.38;;;;;;;3.04;52.43;102202.06;5029230;28;20037;-81
2021/03/28 05:18:11;;;;;;;8.55;1.73;;;;;;;3.12;52.18;102193.56;5057020;28;20040;-80
2021/03/28 05:20:52;;;;;;;10.10;1.88;;;;;;;2.89;52.94;102197.56;5014040;28;20493;-81
2021/03/28 05:23:18;;;;;;;4.00;1.45;;;;;;;2.13;55.16;102204.19;5034923;28;20388;-81
2021/03/28 05:26:26;;;;;;;13.68;2.72;;;;;;;3.13;52.69;102195.28;5048245;28;20297;-81
2021/03/28 05:28:58;;;;;;;12.57;2.55;;;;;;;3.18;52.76;102206.56;5054855;28;20029;-80
2021/03/28 05:31:26;;;;;;;16.70;2.63;;;;;;;3.38;52.24;102211.09;5037485;28;20034;-81
2021/03/28 05:34:20;;;;;;;7.72;2.20;;;;;;;3.14;52.87;102215.13;5034966;28;20029;-80
2021/03/28 05:36:55;;;;;;;9.05;2.13;;;;;;;2.79;54.09;102212.06;5048154;28;20067;-80
2021/03/28 05:39:45;;;;;;;18.40;3.15;;;;;;;3.41;52.47;102212.88;5035004;28;20429;-82
2021/03/28 05:42:21;;;;;;;8.07;2.85;;;;;;;3.65;51.89;102204.50;5032012;28;20100;-80
2021/03/28 05:44:59;;;;;;;17.25;1.95;;;;;;;3.33;53.08;102203.31;5036239;28;20040;-80
2021/03/28 05:47:50;;;;;;;13.32;2.75;;;;;;;3.31;53.42;102199.81;5035482;28;20098;-81
2021/03/28 05:50:30;;;;;;;12.48;2.40;;;;;;;3.59;52.58;102192.41;4986817;28;20045;-79
2021/03/28 05:53:20;;;;;;;14.00;2.33;;;;;;;4.21;50.98;102191.22;5050509;28;20047;-79
2021/03/28 05:56:25;;;;;;;8.93;2.65;;;;;;;4.25;51.32;102190.38;5056887;28;20044;-80
2021/03/28 05:59:00;;;;;;;8.30;2.45;;;;;;;3.57;52.57;102188.94;5040615;28;20356;-80
2021/03/28 06:01:49;;;;;;;7.40;2.88;;;;;;;3.74;51.95;102189.97;5035837;28;20036;-80
2021/03/28 06:04:26;;;;;;;7.68;2.38;;;;;;;3.98;51.98;102186.75;5049412;28;20426;-80
2021/03/28 06:07:40;;;;;;;10.23;2.83;;;;;;;4.12;51.60;102199.78;5032982;28;20037;-80
2021/03/28 06:10:40;;;;;;;11.07;2.58;;;;;;;4.46;50.63;102196.59;5046839;28;20275;-80
2021/03/28 06:13:35;;;;;;;9.40;2.45;;;;;;;4.48;50.68;102193.16;5064704;28;20557;-80
2021/03/28 06:16:16;;;;;;;9.60;2.60;;;;;;;4.50;50.46;102193.13;5053646;28;20041;-80
2021/03/28 06:18:57;;;;;;;13.23;2.63;;;;;;;3.98;52.14;102196.19;5053819;28;20189;-81
2021/03/28 06:21:37;;;;;;;10.90;3.50;;;;;;;4.55;50.46;102192.31;5069485;28;20051;-81
2021/03/28 06:24:24;;;;;;;16.35;4.15;;;;;;;3.65;52.83;102194.16;5040462;28;20063;-80
2021/03/28 06:27:24;;;;;;;5.95;1.85;;;;;;;4.22;51.56;102192.94;5037287;28;20033;-81
2021/03/28 06:30:02;;;;;;;6.45;2.20;;;;;;;4.04;51.99;102198.00;5053535;28;20035;-80
2021/03/28 06:32:57;;;;;;;10.70;2.30;;;;;;;4.82;50.39;102194.19;5065749;28;20067;-81
2021/03/28 06:36:16;;;;;;;9.23;2.15;;;;;;;6.63;46.82;102203.19;5047601;28;20029;-80
2021/03/28 06:39:18;;;;;;;9.32;2.20;;;;;;;7.64;42.99;102201.91;5065121;28;20064;-81
2021/03/28 06:42:01;;;;;;;12.82;2.45;;;;;;;8.15;41.84;102203.25;5055635;28;20057;-81
2021/03/28 06:44:45;;;;;;;8.63;2.83;;;;;;;7.15;43.88;102192.59;5050639;28;20029;-80
2021/03/28 06:47:32;;;;;;;9.85;2.47;;;;;;;6.08;46.04;102194.56;5031520;28;20024;-80
2021/03/28 06:50:35;;;;;;;10.57;2.53;;;;;;;6.67;45.03;102194.53;5048940;28;20025;-79
2021/03/28 06:53:36;;;;;;;8.82;2.55;;;;;;;5.85;47.65;102196.28;5038705;28;20128;-80
2021/03/28 06:56:17;;;;;;;15.18;2.75;;;;;;;7.28;43.44;102181.28;5033615;28;20036;-80
2021/03/28 06:59:13;;;;;;;8.07;1.52;;;;;;;9.31;38.85;102178.53;5040013;28;20417;-81
2021/03/28 07:02:17;;;;;;;12.15;2.50;;;;;;;7.62;42.87;102183.69;5034853;28;20033;-80
2021/03/28 07:05:08;;;;;;;11.02;1.88;;;;;;;7.26;43.61;102201.22;5022591;28;20049;-80
2021/03/28 07:08:11;;;;;;;15.65;3.40;;;;;;;6.88;44.19;102191.84;5050245;28;20063;-80
2021/03/28 07:10:55;;;;;;;14.70;2.38;;;;;;;7.25;44.25;102181.28;5048398;28;20029;-80
2021/03/28 07:13:39;;;;;;;5.85;2.00;;;;;;;8.00;43.01;102190.34;5035796;28;20129;-80
2021/03/28 07:16:53;;;;;;;10.85;2.97;;;;;;;7.88;42.84;102173.09;5046728;28;20032;-80
2021/03/28 07:19:49;;;;;;;5.40;2.17;;;;;;;6.42;46.16;102173.78;5079517;28;20304;-81
2021/03/28 07:22:48;;;;;;;11.88;1.58;;;;;;;9.34;39.30;102155.91;5052118;28;20071;-81
2021/03/28 07:25:27;;;;;;;7.53;1.75;;;;;;;10.85;36.53;102163.75;5050943;28;20092;-81
2021/03/28 07:28:11;;;;;;;10.88;1.88;;;;;;;10.51;37.41;102172.25;5052337;28;20025;-81
2021/03/28 07:30:55;;;;;;;12.30;2.22;;;;;;;11.37;35.35;102162.63;5039625;28;20067;-80
2021/03/28 07:33:36;;;;;;;10.13;2.42;;;;;;;10.04;37.79;102158.31;5033453;28;20044;-82
2021/03/28 07:36:37;;;;;;;6.03;1.60;;;;;;;11.67;35.20;102155.81;5035911;28;20246;-80
2021/03/28 07:39:40;;;;;;;15.38;2.47;;;;;;;12.36;32.92;102149.75;5034341;28;20063;-80
2021/03/28 07:42:20;;;;;;;;;;;;;;;11.33;35.38;102150.53;5032989;28;20510;-81
2021/03/28 07:45:13;;;;;;;10.18;1.45;;;;;;;12.02;33.12;102155.84;5038616;28;19924;-80
2021/03/28 07:47:45;;;;;;;7.53;1.25;;;;;;;13.87;30.86;102157.44;5066678;28;20033;-81
2021/03/28 07:50:38;;;;;;;3.70;1.75;;;;;;;13.59;31.20;102159.28;5055152;28;20105;-81
2021/03/28 07:53:16;;;;;;;16.70;2.53;;;;;;;12.99;32.27;102161.09;5052577;28;20030;-81
2021/03/28 07:56:20;;;;;;;5.93;1.85;;;;;;;12.77;33.13;102156.47;5040382;28;20025;-80
2021/03/28 07:59:25;;;;;;;9.52;1.70;;;;;;;12.38;33.26;102163.66;5054926;28;20064;-81
2021/03/28 08:02:20;;;;;;;6.15;1.67;;;;;;;9.70;38.12;102157.94;5076742;28;20029;-80
2021/03/28 08:05:14;;;;;;;5.28;1.15;;;;;;;8.65;40.40;102168.91;5054955;28;20062;-81
2021/03/28 08:07:52;;;;;;;7.07;1.52;;;;;;;7.31;43.87;102163.06;5042414;28;20131;-79
2021/03/28 08:10:29;;;;;;;10.13;1.50;;;;;;;6.98;45.27;102164.09;5038937;28;20045;-81
2021/03/28 08:13:30;;;;;;;8.85;1.52;;;;;;;5.96;47.75;102168.59;5048194;28;20112;-81
2021/03/28 08:16:14;;;;;;;8.57;1.77;;;;;;;6.49;47.08;102178.09;5046404;28;20061;-82
2021/03/28 08:19:17;;;;;;;7.18;1.80;;;;;;;6.83;45.91;102158.97;5037780;28;20037;-82
2021/03/28 08:21:50;;;;;;;10.35;1.80;;;;;;;7.78;44.52;102157.56;5050579;28;20492;-83
2021/03/28 08:24:18;;;;;;;7.07;0.93;;;;;;;7.09;45.57;102164.06;5061985;28;20564;-83
2021/03/28 08:27:13;;;;;;;10.80;2.47;;;;;;;7.41;44.22;102163.00;5036335;28;20047;-83
2021/03/28 08:30:06;;;;;;;11.68;1.45;;;;;;;7.50;44.13;102157.75;5021484;28;20139;-80
2021/03/28 08:33:12;;;;;;;6.03;1.50;;;;;;;7.22;45.36;102164.84;5044087;28;20025;-82
2021/03/28 08:35:43;;;;;;;5.88;1.42;;;;;;;7.39;44.82;102164.75;5065319;28;20064;-82
2021/03/28 08:38:23;;;;;;;7.82;1.23;;;;;;;5.79;48.46;102167.72;5036257;28;20120;-79
2021/03/28 08:41:18;;;;;;;9.05;1.13;;;;;;;6.86;46.62;102154.63;5051157;28;20096;-80
2021/03/28 08:43:53;;;;;;;3.35;0.63;;;;;;;7.21;46.03;102145.78;5048638;28;20104;-80
2021/03/28 08:46:48;;;;;;;6.93;1.45;;;;;;;7.16;46.19;102139.75;5043567;28;20576;-81
2021/03/28 08:49:17;;;;;;;13.82;2.40;;;;;;;7.59;45.35;102141.25;5031211;28;20045;-81
2021/03/28 08:52:04;;;;;;;8.27;1.35;;;;;;;7.69;44.28;102145.47;5038157;28;20044;-81
2021/03/28 08:54:45;;;;;;;12.98;1.05;;;;;;;7.21;45.73;102153.56;5039309;28;20040;-81
2021/03/28 08:57:30;;;;;;;10.00;1.70;;;;;;;8.31;43.81;102145.81;5030764;28;20052;-81
2021/03/28 09:00:33;;;;;;;6.82;0.90;;;;;;;7.28;46.06;102152.66;5031799;28;20510;-80
2021/03/28 09:03:11;;;;;;;7.95;1.25;;;;;;;7.23;46.31;102150.97;5034261;28;20029;-80
2021/03/28 09:05:36;;;;;;;3.63;0.70;;;;;;;7.08;46.21;102138.91;5038497;28;20037;-80
2021/03/28 09:08:46;;;;;;;5.75;1.55;;;;;;;7.04;46.65;102155.38;5050136;28;20029;-80
2021/03/28 09:11:21;;;;;;;9.73;1.02;;;;;;;7.06;47.05;102151.03;5047345;28;20049;-80
2021/03/28 09:13:46;;;;;;;8.75;2.42;;;;;;;6.82;47.58;102147.72;5054518;28;20072;-81
2021/03/28 09:16:38;;;;;;;5.25;0.90;;;;;;;6.70;47.10;102143.41;5033736;28;20039;-81
2021/03/28 09:19:10;;;;;;;7.57;1.77;;;;;;;7.74;45.25;102146.34;5033191;28;20051;-82
2021/03/28 09:21:44;;;;;;;9.48;1.77;;;;;;;8.14;44.76;102146.00;5040367;28;20087;-82
2021/03/28 09:24:33;;;;;;;7.70;0.98;;;;;;;7.38;45.95;102137.00;5049020;28;20492;-81
2021/03/28 09:27:31;;;;;;;6.50;1.83;;;;;;;8.35;44.34;102121.47;5049356;28;20041;-80
2021/03/28 09:30:26;;;;;;;6.15;1.05;;;;;;;8.53;43.33;102129.06;5036514;28;20092;-80
2021/03/28 09:33:19;;;;;;;2.58;0.70;;;;;;;8.18;44.24;102121.63;5049115;28;20029;-81
2021/03/28 09:35:53;;;;;;;7.88;0.98;;;;;;;7.83;44.95;102125.44;5048269;28;20033;-80
2021/03/28 09:38:41;;;;;;;6.30;0.70;;;;;;;8.72;43.02;102118.47;5027960;28;20167;-82
2021/03/28 09:41:10;;;;;;;7.80;0.75;;;;;;;8.53;43.31;102113.44;5026440;28;20060;-81
2021/03/28 09:43:39;;;;;;;9.07;0.70;;;;;;;8.55;43.37;102114.28;5032879;28;20036;-80
2021/03/28 09:46:39;;;;;;;10.18;1.05;;;;;;;8.39;43.61;102104.91;5039572;28;20052;-81
2021/03/28 09:49:23;;;;;;;6.90;0.85;;;;;;;8.51;43.77;102103.91;5031098;28;20246;-82
2021/03/28 09:51:58;;;;;;;6.43;1.05;;;;;;;10.01;41.12;102096.53;5050579;28;20384;-84
2021/03/28 09:54:42;;;;;;;4.38;0.75;;;;;;;10.34;40.23;102088.06;5030987;28;20053;-84
2021/03/28 09:57:26;;;;;;;3.17;0.93;;;;;;;8.50;43.20;102087.41;5044781;28;20037;-82
2021/03/28 09:59:54;;;;;;;7.80;1.13;;;;;;;9.26;41.30;102107.31;5026207;28;20034;-83
2021/03/28 10:03:05;;;;;;;3.70;1.00;;;;;;;9.51;41.08;102090.38;5027544;28;20350;-83
2021/03/28 10:05:33;;;;;;;5.10;1.05;;;;;;;9.12;42.08;102097.06;5031877;23;20046;-67
2021/03/28 10:08:08;;;;;;;7.50;0.68;;;;;;;9.57;41.28;102102.47;4994057;28;20034;-68
2021/03/28 10:11:04;;;;;;;4.93;0.43;;;;;;;8.72;42.92;102097.63;4995444;28;20543;-67
2021/03/28 10:13:44;;;;;;;7.55;0.40;;;;;;;8.93;42.93;102107.75;4990948;28;20038;-66
2021/03/28 10:16:12;;;;;;;7.63;1.27;;;;;;;8.53;42.91;102102.16;4992561;28;20504;-67
2021/03/28 10:19:15;;;;;;;7.43;0.85;;;;;;;9.05;42.48;102098.88;4991961;28;20041;-67
2021/03/28 10:22:15;;;;;;;7.55;1.42;;;;;;;8.98;43.04;102092.94;4991699;28;20543;-68
2021/03/28 10:25:16;;;;;;;9.27;0.95;;;;;;;8.75;42.87;102098.44;4993697;28;20080;-67
2021/03/28 10:28:00;;;;;;;6.25;0.82;;;;;;;8.68;42.72;102096.75;4992184;28;20084;-67
2021/03/28 10:30:26;;;;;;;4.47;0.75;;;;;;;8.79;42.32;102088.84;4994979;28;20536;-68
2021/03/28 10:33:27;;;;;;;8.00;0.65;;;;;;;8.76;42.51;102089.75;4977308;28;20034;-67
2021/03/28 10:36:54;;;;;;;3.30;0.57;;;;;;;9.22;41.52;102090.84;4982777;28;20610;-67
2021/03/28 10:39:45;;;;;;;6.05;0.50;;;;;;;8.43;42.56;102075.34;4942403;28;20336;-66
2021/03/28 10:42:43;;;;;;;4.82;0.43;;;;;;;8.68;42.71;102090.69;4990009;28;20054;-67
2021/03/28 10:45:30;;;;;;;6.60;1.13;;;;;;;8.38;43.23;102097.97;4992252;28;20030;-69
2021/03/28 10:48:20;;;;;;;4.82;0.68;;;;;;;9.51;41.67;102099.97;4996117;28;20092;-68
2021/03/28 10:51:17;;;;;;;2.13;0.32;;;;;;;8.69;43.08;102113.25;4981369;28;20069;-67
2021/03/28 10:54:34;;;;;;;5.63;0.85;;;;;;;8.60;43.65;102111.63;4997648;28;20509;-68
2021/03/28 10:57:18;;;;;;;4.35;0.65;;;;;;;8.34;43.81;102111.94;4976780;28;20065;-68
2021/03/28 11:00:22;;;;;;;3.95;0.55;;;;;;;8.84;43.50;102107.88;4990862;28;20026;-68
2021/03/28 11:03:25;;;;;;;9.07;0.52;;;;;;;8.91;42.96;102106.91;4990163;28;20026;-67
2021/03/28 11:06:23;;;;;;;10.32;1.10;;;;;;;8.28;46.10;102109.38;5029508;28;20033;-66
2021/03/28 11:09:05;;;;;;;1.92;0.63;;;;;;;8.79;44.94;102108.84;5030364;28;20060;-68
2021/03/28 11:11:42;;;;;;;7.57;1.00;;;;;;;8.53;45.98;102107.34;5027050;28;20025;-67
2021/03/28 11:14:35;;;;;;;8.02;1.50;;;;;;;7.86;45.34;102103.72;5026064;28;20550;-66
2021/03/28 11:17:41;;;;;;;3.33;0.70;;;;;;;7.57;47.06;102107.41;5021880;28;20132;-67
2021/03/28 11:20:28;;;;;;;3.05;1.30;;;;;;;7.95;46.96;102108.84;5029654;28;20095;-69
2021/03/28 11:23:28;;;;;;;7.30;1.60;;;;;;;7.77;45.99;102096.00;5029968;28;20440;-66
2021/03/28 11:26:15;;;;;;;3.13;0.50;;;;;;;8.14;46.35;102097.38;5028933;28;20044;-68
2021/03/28 11:29:09;;;;;;;4.82;0.75;;;;;;;8.93;45.26;102109.50;5031516;28;20128;-67
2021/03/28 11:31:56;;;;;;;4.95;0.77;;;;;;;8.16;46.20;102107.78;5029919;28;20562;-66
2021/03/28 11:34:27;;;;;;;5.85;1.25;;;;;;;8.57;46.26;102109.06;5028939;28;20029;-68
2021/03/28 11:36:59;;;;;;;6.97;0.85;;;;;;;8.20;46.71;102111.19;5020039;28;20060;-67
2021/03/28 11:39:53;;;;;;;;;;;;;;;7.86;47.32;102124.53;5026441;28;20414;-67
2021/03/28 11:42:24;;;;;;;9.43;1.40;;;;;;;7.87;47.77;102123.66;5037303;28;19936;-67
2021/03/28 11:45:03;;;;;;;3.92;1.38;;;;;;;7.31;49.00;102121.44;5021722;28;20037;-67
2021/03/28 11:47:36;;;;;;;3.10;0.60;;;;;;;7.73;49.12;102126.38;5031269;28;20040;-67
2021/03/28 11:50:13;;;;;;;3.47;0.85;;;;;;;7.79;48.81;102130.69;5027254;28;20037;-67
2021/03/28 11:53:04;;;;;;;2.67;1.35;;;;;;;7.11;50.72;102133.72;5034466;28;20107;-67
2021/03/28 11:55:38;;;;;;;9.00;0.63;;;;;;;7.91;49.17;102144.47;5044226;28;20496;-68
2021/03/28 11:58:12;;;;;;;3.15;0.73;;;;;;;7.11;50.81;102133.72;5026376;28;20495;-68
2021/03/28 12:00:46;;;;;;;3.85;0.93;;;;;;;7.31;51.25;102129.25;5029359;28;20033;-68
2021/03/28 12:03:22;;;;;;;4.03;0.75;;;;;;;8.40;49.03;102137.91;5042331;28;20044;-68
2021/03/28 12:06:08;;;;;;;6.18;1.30;;;;;;;6.70;52.61;102142.53;5028592;28;20142;-67
2021/03/28 12:08:56;;;;;;;8.00;1.00;;;;;;;7.62;50.20;102126.44;5036501;28;20033;-68
2021/03/28 12:11:41;;;;;;;8.63;0.88;;;;;;;6.66;52.78;102125.22;5026681;28;20107;-68
2021/03/28 12:14:12;;;;;;;6.20;0.63;;;;;;;6.68;52.60;102129.53;5033711;28;20050;-68
2021/03/28 12:17:09;;;;;;;6.40;1.63;;;;;;;6.63;52.58;102140.84;5028441;28;20087;-68
2021/03/28 12:19:49;;;;;;;6.07;1.08;;;;;;;6.59;53.26;102139.13;5033316;28;20029;-68
2021/03/28 12:22:37;;;;;;;7.13;1.00;;;;;;;7.28;52.64;102137.06;5027891;28;20033;-67
2021/03/28 12:25:17;;;;;;;7.68;1.00;;;;;;;6.91;53.18;102145.06;5031785;28;20403;-68
2021/03/28 12:27:55;;;;;;;10.38;0.88;;;;;;;7.24;52.12;102143.16;5028263;28;20033;-67
2021/03/28 12:30:42;;;;;;;3.80;0.70;;;;;;;6.94;53.68;102145.94;5031548;28;20037;-67
2021/03/28 12:33:24;;;;;;;6.30;1.10;;;;;;;6.70;53.34;102152.94;5027928;28;20047;-67
2021/03/28 12:35:59;;;;;;;5.57;1.05;;;;;;;6.62;54.13;102144.28;5044355;28;20036;-69
2021/03/28 12:38:28;;;;;;;9.88;2.08;;;;;;;6.82;54.55;102147.72;5029683;28;20048;-67
2021/03/28 12:41:09;;;;;;;3.33;0.90;;;;;;;6.74;54.63;102152.06;5030608;28;20025;-67
2021/03/28 12:43:39;;;;;;;10.50;1.05;;;;;;;6.75;54.57;102150.31;5030853;28;20469;-67
2021/03/28 12:46:26;;;;;;;8.15;1.65;;;;;;;6.28;55.31;102144.38;5027699;28;20578;-67
2021/03/28 12:49:14;;;;;;;12.60;1.13;;;;;;;7.20;53.90;102151.88;5024023;28;20027;-67
2021/03/28 12:51:43;;;;;;;6.28;1.17;;;;;;;6.47;55.16;102146.06;5032845;28;20510;-67
2021/03/28 12:54:28;;;;;;;4.55;1.63;;;;;;;6.99;54.13;102131.16;5032022;28;20514;-67